sensor_id;sensor_type;location;lat;lon;timestamp;pressure;altitude;pressure_sealevel;temperature;humidity
71559;BME280;59382;43.852;25.952;2023-04-27T00:02:14;100893.84;;;12.61;57.20
71559;BME280;59382;43.852;25.952;2023-04-27T00:04:40;100910.09;;;12.61;57.44
71559;BME280;59382;43.852;25.952;2023-04-27T00:07:09;100917.22;;;12.56;57.32
71559;BME280;59382;43.852;25.952;2023-04-27T00:09:35;100912.69;;;12.50;57.83
71559;BME280;59382;43.852;25.952;2023-04-27T00:12:00;100924.75;;;12.47;57.44
71559;BME280;59382;43.852;25.952;2023-04-27T00:14:26;100907.34;;;12.37;57.53
71559;BME280;59382;43.852;25.952;2023-04-27T00:16:53;100915.88;;;12.40;57.96
71559;BME280;59382;43.852;25.952;2023-04-27T00:19:18;100927.66;;;12.52;57.55
71559;BME280;59382;43.852;25.952;2023-04-27T00:21:44;100904.38;;;12.45;57.71
71559;BME280;59382;43.852;25.952;2023-04-27T00:24:10;100925.13;;;12.57;56.79
71559;BME280;59382;43.852;25.952;2023-04-27T00:26:36;100936.53;;;12.59;56.42
71559;BME280;59382;43.852;25.952;2023-04-27T00:29:01;100909.97;;;12.50;56.35
71559;BME280;59382;43.852;25.952;2023-04-27T00:31:27;100908.09;;;12.50;56.36
71559;BME280;59382;43.852;25.952;2023-04-27T00:33:52;100915.63;;;12.48;56.23
71559;BME280;59382;43.852;25.952;2023-04-27T00:36:18;100915.97;;;12.52;55.72
71559;BME280;59382;43.852;25.952;2023-04-27T00:38:43;100930.53;;;12.57;55.67
71559;BME280;59382;43.852;25.952;2023-04-27T00:41:09;100903.16;;;12.41;55.85
71559;BME280;59382;43.852;25.952;2023-04-27T00:43:44;100934.91;;;12.58;55.57
71559;BME280;59382;43.852;25.952;2023-04-27T00:46:13;100926.38;;;12.55;55.30
71559;BME280;59382;43.852;25.952;2023-04-27T00:48:40;100925.16;;;12.51;55.25
71559;BME280;59382;43.852;25.952;2023-04-27T00:51:05;100925.56;;;12.54;55.61
71559;BME280;59382;43.852;25.952;2023-04-27T00:53:31;100892.19;;;12.29;55.33
71559;BME280;59382;43.852;25.952;2023-04-27T00:55:57;100928.88;;;12.56;55.22
71559;BME280;59382;43.852;25.952;2023-04-27T00:58:23;100920.75;;;12.56;55.36
71559;BME280;59382;43.852;25.952;2023-04-27T01:00:49;100932.63;;;12.55;55.21
71559;BME280;59382;43.852;25.952;2023-04-27T01:03:15;100924.31;;;12.50;54.92
71559;BME280;59382;43.852;25.952;2023-04-27T01:05:41;100907.31;;;12.43;55.23
71559;BME280;59382;43.852;25.952;2023-04-27T01:08:07;100914.38;;;12.44;55.11
71559;BME280;59382;43.852;25.952;2023-04-27T01:10:33;100916.50;;;12.42;55.12
71559;BME280;59382;43.852;25.952;2023-04-27T01:12:59;100921.47;;;12.45;55.03
71559;BME280;59382;43.852;25.952;2023-04-27T01:15:24;100911.94;;;12.36;54.96
71559;BME280;59382;43.852;25.952;2023-04-27T01:17:59;100939.78;;;12.43;54.97
71559;BME280;59382;43.852;25.952;2023-04-27T01:20:25;100907.00;;;12.27;54.39
71559;BME280;59382;43.852;25.952;2023-04-27T01:22:58;100943.56;;;12.42;54.79
71559;BME280;59382;43.852;25.952;2023-04-27T01:25:24;100950.63;;;12.43;54.55
71559;BME280;59382;43.852;25.952;2023-04-27T01:27:49;100956.66;;;12.45;54.53
71559;BME280;59382;43.852;25.952;2023-04-27T01:30:15;100956.03;;;12.43;54.53
71559;BME280;59382;43.852;25.952;2023-04-27T01:32:41;100965.97;;;12.49;54.46
71559;BME280;59382;43.852;25.952;2023-04-27T01:35:07;100952.69;;;12.41;54.37
71559;BME280;59382;43.852;25.952;2023-04-27T01:37:33;100968.47;;;12.51;54.29
71559;BME280;59382;43.852;25.952;2023-04-27T01:39:59;100968.44;;;12.57;53.99
71559;BME280;59382;43.852;25.952;2023-04-27T01:42:25;100961.00;;;12.46;54.24
71559;BME280;59382;43.852;25.952;2023-04-27T01:44:50;100950.19;;;12.46;54.32
71559;BME280;59382;43.852;25.952;2023-04-27T01:47:16;100964.28;;;12.55;54.03
71559;BME280;59382;43.852;25.952;2023-04-27T01:49:42;100973.84;;;12.57;54.05
71559;BME280;59382;43.852;25.952;2023-04-27T01:52:08;100970.09;;;12.58;53.96
71559;BME280;59382;43.852;25.952;2023-04-27T01:54:34;100979.44;;;12.62;54.11
71559;BME280;59382;43.852;25.952;2023-04-27T01:56:59;100973.84;;;12.57;53.55
71559;BME280;59382;43.852;25.952;2023-04-27T01:59:26;100982.78;;;12.58;53.99
71559;BME280;59382;43.852;25.952;2023-04-27T02:01:52;100994.19;;;12.66;53.38
71559;BME280;59382;43.852;25.952;2023-04-27T02:04:18;100984.22;;;12.60;53.66
71559;BME280;59382;43.852;25.952;2023-04-27T02:06:43;100977.16;;;12.59;53.42
71559;BME280;59382;43.852;25.952;2023-04-27T02:09:09;100988.38;;;12.63;53.28
71559;BME280;59382;43.852;25.952;2023-04-27T02:11:34;100993.81;;;12.63;53.68
71559;BME280;59382;43.852;25.952;2023-04-27T02:14:00;100987.97;;;12.59;53.81
71559;BME280;59382;43.852;25.952;2023-04-27T02:16:25;100998.38;;;12.62;53.33
71559;BME280;59382;43.852;25.952;2023-04-27T02:18:51;100993.03;;;12.56;53.40
71559;BME280;59382;43.852;25.952;2023-04-27T02:21:18;100997.16;;;12.58;53.43
71559;BME280;59382;43.852;25.952;2023-04-27T02:23:49;100979.09;;;12.46;53.76
71559;BME280;59382;43.852;25.952;2023-04-27T02:26:16;101000.47;;;12.60;53.40
71559;BME280;59382;43.852;25.952;2023-04-27T02:28:42;101016.69;;;12.67;53.22
71559;BME280;59382;43.852;25.952;2023-04-27T02:31:07;101022.94;;;12.67;53.09
71559;BME280;59382;43.852;25.952;2023-04-27T02:33:33;101023.72;;;12.74;53.55
71559;BME280;59382;43.852;25.952;2023-04-27T02:36:01;101019.50;;;12.78;53.32
71559;BME280;59382;43.852;25.952;2023-04-27T02:38:28;101029.47;;;12.84;53.67
71559;BME280;59382;43.852;25.952;2023-04-27T02:40:54;101016.59;;;12.80;53.28
71559;BME280;59382;43.852;25.952;2023-04-27T02:43:20;101019.44;;;12.91;53.42
71559;BME280;59382;43.852;25.952;2023-04-27T02:45:46;101032.56;;;12.94;53.22
71559;BME280;59382;43.852;25.952;2023-04-27T02:48:11;101021.53;;;12.89;53.17
71559;BME280;59382;43.852;25.952;2023-04-27T02:50:40;101031.06;;;12.98;53.20
71559;BME280;59382;43.852;25.952;2023-04-27T02:53:06;101021.09;;;12.92;53.09
71559;BME280;59382;43.852;25.952;2023-04-27T02:55:32;101022.16;;;12.91;53.08
71559;BME280;59382;43.852;25.952;2023-04-27T02:57:58;101018.78;;;12.96;53.46
71559;BME280;59382;43.852;25.952;2023-04-27T03:00:23;101032.75;;;12.99;52.96
71559;BME280;59382;43.852;25.952;2023-04-27T03:02:49;101027.72;;;13.03;52.91
71559;BME280;59382;43.852;25.952;2023-04-27T03:05:15;101034.78;;;13.04;53.02
71559;BME280;59382;43.852;25.952;2023-04-27T03:07:40;101050.56;;;13.13;53.19
71559;BME280;59382;43.852;25.952;2023-04-27T03:10:08;101044.53;;;13.11;53.33
71559;BME280;59382;43.852;25.952;2023-04-27T03:12:34;101043.09;;;13.09;52.89
71559;BME280;59382;43.852;25.952;2023-04-27T03:14:59;101052.00;;;13.16;53.41
71559;BME280;59382;43.852;25.952;2023-04-27T03:17:26;101081.13;;;13.27;53.15
71559;BME280;59382;43.852;25.952;2023-04-27T03:19:51;101060.09;;;13.22;53.08
71559;BME280;59382;43.852;25.952;2023-04-27T03:22:17;101080.25;;;13.33;53.07
71559;BME280;59382;43.852;25.952;2023-04-27T03:24:43;101067.13;;;13.30;53.07
71559;BME280;59382;43.852;25.952;2023-04-27T03:27:08;101081.19;;;13.45;53.14
71559;BME280;59382;43.852;25.952;2023-04-27T03:29:34;101095.28;;;13.53;53.16
71559;BME280;59382;43.852;25.952;2023-04-27T03:31:59;101094.22;;;13.54;53.35
71559;BME280;59382;43.852;25.952;2023-04-27T03:34:25;101102.53;;;13.59;53.25
71559;BME280;59382;43.852;25.952;2023-04-27T03:36:50;101095.88;;;13.55;52.84
71559;BME280;59382;43.852;25.952;2023-04-27T03:39:16;101100.72;;;13.53;53.01
71559;BME280;59382;43.852;25.952;2023-04-27T03:41:42;101092.84;;;13.45;53.36
71559;BME280;59382;43.852;25.952;2023-04-27T03:44:07;101113.38;;;13.59;53.07
71559;BME280;59382;43.852;25.952;2023-04-27T03:46:33;101108.50;;;13.68;53.06
71559;BME280;59382;43.852;25.952;2023-04-27T03:48:58;101106.00;;;13.66;53.09
71559;BME280;59382;43.852;25.952;2023-04-27T03:51:24;101107.56;;;13.80;52.71
71559;BME280;59382;43.852;25.952;2023-04-27T03:53:49;101091.34;;;13.74;52.60
71559;BME280;59382;43.852;25.952;2023-04-27T03:56:15;101093.38;;;13.78;52.31
71559;BME280;59382;43.852;25.952;2023-04-27T03:58:41;101100.31;;;13.74;51.98
71559;BME280;59382;43.852;25.952;2023-04-27T04:01:06;101081.44;;;13.61;52.18
71559;BME280;59382;43.852;25.952;2023-04-27T04:03:35;101114.47;;;13.76;52.41
71559;BME280;59382;43.852;25.952;2023-04-27T04:06:00;101123.03;;;13.73;52.19
71559;BME280;59382;43.852;25.952;2023-04-27T04:08:28;101113.31;;;13.66;52.51
71559;BME280;59382;43.852;25.952;2023-04-27T04:10:57;101113.47;;;13.71;52.29
71559;BME280;59382;43.852;25.952;2023-04-27T04:13:23;101117.19;;;13.76;52.24
71559;BME280;59382;43.852;25.952;2023-04-27T04:15:48;101130.28;;;13.79;52.59
71559;BME280;59382;43.852;25.952;2023-04-27T04:18:14;101129.50;;;13.79;52.26
71559;BME280;59382;43.852;25.952;2023-04-27T04:20:39;101109.34;;;13.68;52.38
71559;BME280;59382;43.852;25.952;2023-04-27T04:23:05;101121.56;;;13.77;52.25
71559;BME280;59382;43.852;25.952;2023-04-27T04:25:31;101132.19;;;13.79;52.22
71559;BME280;59382;43.852;25.952;2023-04-27T04:27:57;101135.81;;;13.73;52.31
71559;BME280;59382;43.852;25.952;2023-04-27T04:30:22;101133.91;;;13.73;52.32
71559;BME280;59382;43.852;25.952;2023-04-27T04:32:48;101139.91;;;13.82;51.86
71559;BME280;59382;43.852;25.952;2023-04-27T04:35:14;101130.53;;;13.78;51.67
71559;BME280;59382;43.852;25.952;2023-04-27T04:37:42;101139.22;;;13.87;51.75
71559;BME280;59382;43.852;25.952;2023-04-27T04:40:08;101139.44;;;13.85;51.71
71559;BME280;59382;43.852;25.952;2023-04-27T04:42:35;101144.22;;;13.90;51.73
71559;BME280;59382;43.852;25.952;2023-04-27T04:45:04;101155.81;;;13.97;51.62
71559;BME280;59382;43.852;25.952;2023-04-27T04:47:30;101136.22;;;13.95;51.54
71559;BME280;59382;43.852;25.952;2023-04-27T04:49:57;101144.53;;;14.00;51.68
71559;BME280;59382;43.852;25.952;2023-04-27T04:52:22;101132.91;;;13.93;51.48
71559;BME280;59382;43.852;25.952;2023-04-27T04:54:51;101130.47;;;13.84;51.42
71559;BME280;59382;43.852;25.952;2023-04-27T04:57:17;101140.88;;;13.88;51.58
71559;BME280;59382;43.852;25.952;2023-04-27T04:59:43;101133.00;;;13.79;51.72
71559;BME280;59382;43.852;25.952;2023-04-27T05:02:08;101128.81;;;13.83;51.27
71559;BME280;59382;43.852;25.952;2023-04-27T05:04:34;101134.16;;;13.90;51.54
71559;BME280;59382;43.852;25.952;2023-04-27T05:06:59;101133.28;;;13.96;50.99
71559;BME280;59382;43.852;25.952;2023-04-27T05:09:25;101147.47;;;13.98;50.92
71559;BME280;59382;43.852;25.952;2023-04-27T05:11:50;101151.00;;;13.99;51.19
71559;BME280;59382;43.852;25.952;2023-04-27T05:14:16;101145.59;;;13.99;50.93
71559;BME280;59382;43.852;25.952;2023-04-27T05:16:42;101136.38;;;14.00;50.73
71559;BME280;59382;43.852;25.952;2023-04-27T05:19:07;101154.97;;;13.96;50.65
71559;BME280;59382;43.852;25.952;2023-04-27T05:21:33;101148.25;;;13.80;50.64
71559;BME280;59382;43.852;25.952;2023-04-27T05:23:58;101135.56;;;13.74;50.96
71559;BME280;59382;43.852;25.952;2023-04-27T05:26:24;101109.78;;;13.65;50.41
71559;BME280;59382;43.852;25.952;2023-04-27T05:28:50;101140.56;;;13.77;50.12
71559;BME280;59382;43.852;25.952;2023-04-27T05:31:15;101145.97;;;13.77;49.97
71559;BME280;59382;43.852;25.952;2023-04-27T05:33:41;101149.72;;;13.76;50.15
71559;BME280;59382;43.852;25.952;2023-04-27T05:36:07;101162.59;;;13.88;50.15
71559;BME280;59382;43.852;25.952;2023-04-27T05:38:32;101145.91;;;13.84;50.25
71559;BME280;59382;43.852;25.952;2023-04-27T05:41:00;101167.13;;;13.94;50.48
71559;BME280;59382;43.852;25.952;2023-04-27T05:43:25;101160.50;;;13.90;50.34
71559;BME280;59382;43.852;25.952;2023-04-27T05:45:51;101148.69;;;13.77;50.39
71559;BME280;59382;43.852;25.952;2023-04-27T05:48:17;101166.78;;;13.83;50.52
71559;BME280;59382;43.852;25.952;2023-04-27T05:50:43;101165.06;;;13.89;50.81
71559;BME280;59382;43.852;25.952;2023-04-27T05:53:08;101166.72;;;13.90;50.94
71559;BME280;59382;43.852;25.952;2023-04-27T05:55:34;101177.09;;;14.00;51.03
71559;BME280;59382;43.852;25.952;2023-04-27T05:58:00;101171.66;;;14.00;50.83
71559;BME280;59382;43.852;25.952;2023-04-27T06:00:26;101161.69;;;13.94;50.86
71559;BME280;59382;43.852;25.952;2023-04-27T06:02:52;101179.66;;;14.13;50.53
71559;BME280;59382;43.852;25.952;2023-04-27T06:05:18;101173.63;;;14.11;50.39
71559;BME280;59382;43.852;25.952;2023-04-27T06:07:44;101169.44;;;14.15;50.25
71559;BME280;59382;43.852;25.952;2023-04-27T06:10:10;101174.41;;;14.18;50.20
71559;BME280;59382;43.852;25.952;2023-04-27T06:12:36;101165.63;;;13.98;50.14
71559;BME280;59382;43.852;25.952;2023-04-27T06:15:02;101179.19;;;13.98;49.66
71559;BME280;59382;43.852;25.952;2023-04-27T06:17:36;101171.59;;;13.81;49.63
71559;BME280;59382;43.852;25.952;2023-04-27T06:20:03;101175.19;;;13.75;50.07
71559;BME280;59382;43.852;25.952;2023-04-27T06:22:32;101174.00;;;13.71;50.08
71559;BME280;59382;43.852;25.952;2023-04-27T06:24:58;101187.69;;;13.76;50.00
71559;BME280;59382;43.852;25.952;2023-04-27T06:27:26;101171.88;;;13.73;50.21
71559;BME280;59382;43.852;25.952;2023-04-27T06:29:51;101186.38;;;13.85;50.25
71559;BME280;59382;43.852;25.952;2023-04-27T06:32:17;101185.72;;;13.90;50.05
71559;BME280;59382;43.852;25.952;2023-04-27T06:34:42;101185.03;;;13.95;49.97
71559;BME280;59382;43.852;25.952;2023-04-27T06:37:08;101173.44;;;13.88;49.84
71559;BME280;59382;43.852;25.952;2023-04-27T06:39:34;101185.50;;;13.92;50.00
71559;BME280;59382;43.852;25.952;2023-04-27T06:41:59;101187.66;;;13.83;49.99
71559;BME280;59382;43.852;25.952;2023-04-27T06:44:26;101178.91;;;13.81;49.81
71559;BME280;59382;43.852;25.952;2023-04-27T06:46:51;101186.03;;;13.75;49.89
71559;BME280;59382;43.852;25.952;2023-04-27T06:49:17;101187.47;;;13.78;50.11
71559;BME280;59382;43.852;25.952;2023-04-27T06:51:43;101180.19;;;13.78;50.12
71559;BME280;59382;43.852;25.952;2023-04-27T06:54:10;101207.03;;;13.87;50.28
71559;BME280;59382;43.852;25.952;2023-04-27T06:56:39;101194.38;;;13.80;50.20
71559;BME280;59382;43.852;25.952;2023-04-27T06:59:04;101194.41;;;13.74;50.17
71559;BME280;59382;43.852;25.952;2023-04-27T07:01:30;101210.19;;;13.83;50.77
71559;BME280;59382;43.852;25.952;2023-04-27T07:03:55;101188.53;;;13.77;50.15
71559;BME280;59382;43.852;25.952;2023-04-27T07:06:21;101207.19;;;13.92;50.13
71559;BME280;59382;43.852;25.952;2023-04-27T07:08:47;101202.44;;;13.87;50.28
71559;BME280;59382;43.852;25.952;2023-04-27T07:11:16;101204.13;;;13.88;50.24
71559;BME280;59382;43.852;25.952;2023-04-27T07:13:42;101210.13;;;13.90;50.50
71559;BME280;59382;43.852;25.952;2023-04-27T07:16:08;101186.81;;;13.82;50.49
71559;BME280;59382;43.852;25.952;2023-04-27T07:18:33;101209.19;;;14.03;50.77
71559;BME280;59382;43.852;25.952;2023-04-27T07:20:58;101204.53;;;14.10;50.76
71559;BME280;59382;43.852;25.952;2023-04-27T07:23:24;101193.06;;;14.08;50.54
71559;BME280;59382;43.852;25.952;2023-04-27T07:25:50;101204.84;;;14.20;50.25
71559;BME280;59382;43.852;25.952;2023-04-27T07:28:16;101202.81;;;14.15;50.27
71559;BME280;59382;43.852;25.952;2023-04-27T07:30:42;101206.59;;;14.14;50.15
71559;BME280;59382;43.852;25.952;2023-04-27T07:33:08;101224.06;;;14.25;50.19
71559;BME280;59382;43.852;25.952;2023-04-27T07:35:34;101216.34;;;14.22;50.03
71559;BME280;59382;43.852;25.952;2023-04-27T07:38:00;101206.38;;;14.16;50.02
71559;BME280;59382;43.852;25.952;2023-04-27T07:40:27;101220.69;;;14.29;50.04
71559;BME280;59382;43.852;25.952;2023-04-27T07:42:53;101209.03;;;14.22;49.72
71559;BME280;59382;43.852;25.952;2023-04-27T07:45:19;101223.94;;;14.38;49.59
71559;BME280;59382;43.852;25.952;2023-04-27T07:47:45;101215.94;;;14.43;49.49
71559;BME280;59382;43.852;25.952;2023-04-27T07:50:12;101223.78;;;14.51;49.57
71559;BME280;59382;43.852;25.952;2023-04-27T07:52:42;101220.19;;;14.39;49.66
71559;BME280;59382;43.852;25.952;2023-04-27T07:55:08;101229.34;;;14.38;50.38
71559;BME280;59382;43.852;25.952;2023-04-27T07:57:34;101225.22;;;14.35;50.48
71559;BME280;59382;43.852;25.952;2023-04-27T08:00:00;101221.22;;;14.38;50.22
71559;BME280;59382;43.852;25.952;2023-04-27T08:02:26;101235.09;;;14.48;50.47
71559;BME280;59382;43.852;25.952;2023-04-27T08:04:55;101237.22;;;14.46;50.48
71559;BME280;59382;43.852;25.952;2023-04-27T08:07:21;101225.16;;;14.42;50.42
71559;BME280;59382;43.852;25.952;2023-04-27T08:09:50;101207.59;;;14.44;50.47
71559;BME280;59382;43.852;25.952;2023-04-27T08:12:16;101233.91;;;14.62;50.27
71559;BME280;59382;43.852;25.952;2023-04-27T08:14:42;101233.63;;;14.70;49.89
71559;BME280;59382;43.852;25.952;2023-04-27T08:17:07;101233.72;;;14.81;49.64
71559;BME280;59382;43.852;25.952;2023-04-27T08:19:33;101228.06;;;14.83;49.67
71559;BME280;59382;43.852;25.952;2023-04-27T08:21:59;101232.19;;;14.85;49.81
71559;BME280;59382;43.852;25.952;2023-04-27T08:24:25;101219.22;;;14.87;49.72
71559;BME280;59382;43.852;25.952;2023-04-27T08:26:50;101230.00;;;14.94;49.52
71559;BME280;59382;43.852;25.952;2023-04-27T08:29:16;101225.63;;;14.93;49.35
71559;BME280;59382;43.852;25.952;2023-04-27T08:31:41;101230.75;;;15.01;49.37
71559;BME280;59382;43.852;25.952;2023-04-27T08:34:07;101233.03;;;15.04;49.28
71559;BME280;59382;43.852;25.952;2023-04-27T08:36:32;101229.97;;;15.12;49.01
71559;BME280;59382;43.852;25.952;2023-04-27T08:38:58;101229.53;;;15.15;48.85
71559;BME280;59382;43.852;25.952;2023-04-27T08:41:24;101229.91;;;15.18;48.67
71559;BME280;59382;43.852;25.952;2023-04-27T08:43:50;101224.69;;;15.17;48.69
71559;BME280;59382;43.852;25.952;2023-04-27T08:46:24;101229.22;;;15.23;48.47
71559;BME280;59382;43.852;25.952;2023-04-27T08:48:55;101230.19;;;15.28;48.50
71559;BME280;59382;43.852;25.952;2023-04-27T08:51:21;101203.63;;;15.12;48.54
71559;BME280;59382;43.852;25.952;2023-04-27T08:53:53;101221.69;;;15.25;48.50
71559;BME280;59382;43.852;25.952;2023-04-27T08:56:23;101214.56;;;15.24;48.41
71559;BME280;59382;43.852;25.952;2023-04-27T08:58:49;101217.72;;;15.39;48.49
71559;BME280;59382;43.852;25.952;2023-04-27T09:01:15;101224.91;;;15.63;47.75
71559;BME280;59382;43.852;25.952;2023-04-27T09:03:41;101209.53;;;15.68;47.69
71559;BME280;59382;43.852;25.952;2023-04-27T09:06:07;101220.97;;;15.89;47.58
71559;BME280;59382;43.852;25.952;2023-04-27T09:08:44;101208.44;;;15.99;47.47
71559;BME280;59382;43.852;25.952;2023-04-27T09:11:15;101215.19;;;16.20;46.93
71559;BME280;59382;43.852;25.952;2023-04-27T09:13:42;101197.91;;;16.26;46.79
71559;BME280;59382;43.852;25.952;2023-04-27T09:16:12;101208.72;;;16.32;46.45
71559;BME280;59382;43.852;25.952;2023-04-27T09:18:42;101202.66;;;16.30;46.46
71559;BME280;59382;43.852;25.952;2023-04-27T09:21:08;101193.31;;;16.26;46.38
71559;BME280;59382;43.852;25.952;2023-04-27T09:23:36;101199.25;;;16.46;46.41
71559;BME280;59382;43.852;25.952;2023-04-27T09:26:04;101193.09;;;16.51;46.18
71559;BME280;59382;43.852;25.952;2023-04-27T09:28:33;101205.28;;;16.60;46.11
71559;BME280;59382;43.852;25.952;2023-04-27T09:31:00;101182.06;;;16.46;46.51
71559;BME280;59382;43.852;25.952;2023-04-27T09:33:31;101188.81;;;16.43;46.46
71559;BME280;59382;43.852;25.952;2023-04-27T09:35:59;101184.06;;;16.50;46.42
71559;BME280;59382;43.852;25.952;2023-04-27T09:38:25;101197.56;;;16.68;46.15
71559;BME280;59382;43.852;25.952;2023-04-27T09:40:53;101192.09;;;16.68;46.29
71559;BME280;59382;43.852;25.952;2023-04-27T09:43:18;101196.81;;;16.84;45.86
71559;BME280;59382;43.852;25.952;2023-04-27T09:45:44;101193.72;;;16.92;45.77
71559;BME280;59382;43.852;25.952;2023-04-27T09:48:11;101195.00;;;17.01;45.71
71559;BME280;59382;43.852;25.952;2023-04-27T09:50:42;101188.09;;;17.10;45.23
71559;BME280;59382;43.852;25.952;2023-04-27T09:53:10;101185.84;;;17.07;44.98
71559;BME280;59382;43.852;25.952;2023-04-27T10:01:46;101198.41;;;17.08;45.21
71559;BME280;59382;43.852;25.952;2023-04-27T10:07:13;101185.06;;;17.23;44.61
71559;BME280;59382;43.852;25.952;2023-04-27T10:09:49;101186.03;;;17.17;44.64
71559;BME280;59382;43.852;25.952;2023-04-27T10:12:26;101187.91;;;17.00;43.83
71559;BME280;59382;43.852;25.952;2023-04-27T10:14:53;101171.50;;;16.72;44.45
71559;BME280;59382;43.852;25.952;2023-04-27T10:17:38;101179.44;;;16.74;44.58
71559;BME280;59382;43.852;25.952;2023-04-27T10:20:05;101182.59;;;16.82;44.82
71559;BME280;59382;43.852;25.952;2023-04-27T10:27:38;101192.47;;;17.11;44.64
71559;BME280;59382;43.852;25.952;2023-04-27T10:30:15;101192.88;;;17.03;44.40
71559;BME280;59382;43.852;25.952;2023-04-27T10:32:53;101171.72;;;16.82;44.58
71559;BME280;59382;43.852;25.952;2023-04-27T10:35:20;101191.25;;;16.79;44.99
71559;BME280;59382;43.852;25.952;2023-04-27T10:37:46;101182.25;;;16.79;45.15
71559;BME280;59382;43.852;25.952;2023-04-27T10:40:13;101187.97;;;17.05;44.66
71559;BME280;59382;43.852;25.952;2023-04-27T10:42:44;101172.31;;;17.12;43.84
71559;BME280;59382;43.852;25.952;2023-04-27T10:45:11;101147.69;;;17.07;43.93
71559;BME280;59382;43.852;25.952;2023-04-27T10:47:42;101174.44;;;17.38;43.49
71559;BME280;59382;43.852;25.952;2023-04-27T10:50:10;101182.31;;;17.63;43.17
71559;BME280;59382;43.852;25.952;2023-04-27T10:52:42;101189.66;;;17.63;42.98
71559;BME280;59382;43.852;25.952;2023-04-27T10:55:15;101164.22;;;17.45;42.85
71559;BME280;59382;43.852;25.952;2023-04-27T10:57:48;101180.22;;;17.53;43.39
71559;BME280;59382;43.852;25.952;2023-04-27T11:00:21;101186.66;;;17.47;43.25
71559;BME280;59382;43.852;25.952;2023-04-27T11:02:48;101185.97;;;17.40;43.71
71559;BME280;59382;43.852;25.952;2023-04-27T11:05:17;101178.75;;;17.34;43.69
71559;BME280;59382;43.852;25.952;2023-04-27T11:07:43;101158.47;;;17.30;43.80
71559;BME280;59382;43.852;25.952;2023-04-27T11:10:14;101167.66;;;17.41;43.73
71559;BME280;59382;43.852;25.952;2023-04-27T11:12:39;101178.47;;;17.47;43.77
71559;BME280;59382;43.852;25.952;2023-04-27T11:15:05;101171.78;;;17.55;43.67
71559;BME280;59382;43.852;25.952;2023-04-27T11:17:34;101173.69;;;17.54;42.93
71559;BME280;59382;43.852;25.952;2023-04-27T11:19:59;101159.66;;;17.34;43.31
71559;BME280;59382;43.852;25.952;2023-04-27T11:22:25;101179.31;;;17.36;43.61
71559;BME280;59382;43.852;25.952;2023-04-27T11:24:51;101171.06;;;17.31;43.62
71559;BME280;59382;43.852;25.952;2023-04-27T11:27:18;101181.47;;;17.34;43.74
71559;BME280;59382;43.852;25.952;2023-04-27T11:29:46;101171.19;;;17.25;43.40
71559;BME280;59382;43.852;25.952;2023-04-27T11:32:22;101168.53;;;17.13;42.81
71559;BME280;59382;43.852;25.952;2023-04-27T11:34:48;101180.88;;;17.04;43.65
71559;BME280;59382;43.852;25.952;2023-04-27T11:37:22;101162.53;;;17.00;43.77
71559;BME280;59382;43.852;25.952;2023-04-27T11:39:49;101166.66;;;17.02;43.85
71559;BME280;59382;43.852;25.952;2023-04-27T11:42:23;101165.50;;;16.98;43.73
71559;BME280;59382;43.852;25.952;2023-04-27T11:44:51;101179.56;;;17.07;44.05
71559;BME280;59382;43.852;25.952;2023-04-27T11:47:17;101168.09;;;16.93;44.22
71559;BME280;59382;43.852;25.952;2023-04-27T11:49:48;101170.56;;;17.06;43.98
71559;BME280;59382;43.852;25.952;2023-04-27T11:52:14;101160.81;;;17.10;43.85
71559;BME280;59382;43.852;25.952;2023-04-27T11:54:51;101145.81;;;16.96;43.90
71559;BME280;59382;43.852;25.952;2023-04-27T11:57:27;101157.56;;;16.97;44.00
71559;BME280;59382;43.852;25.952;2023-04-27T11:59:54;101141.25;;;16.85;44.26
71559;BME280;59382;43.852;25.952;2023-04-27T12:02:21;101149.75;;;16.89;44.35
71559;BME280;59382;43.852;25.952;2023-04-27T12:04:47;101130.72;;;16.77;44.26
71559;BME280;59382;43.852;25.952;2023-04-27T12:07:13;101126.94;;;16.78;44.32
71559;BME280;59382;43.852;25.952;2023-04-27T12:09:39;101127.03;;;16.83;44.40
71559;BME280;59382;43.852;25.952;2023-04-27T12:12:05;101137.56;;;16.91;44.42
71559;BME280;59382;43.852;25.952;2023-04-27T12:14:31;101147.97;;;16.94;44.29
71559;BME280;59382;43.852;25.952;2023-04-27T12:16:56;101142.50;;;16.94;44.28
71559;BME280;59382;43.852;25.952;2023-04-27T12:19:22;101132.09;;;16.91;44.39
71559;BME280;59382;43.852;25.952;2023-04-27T12:21:50;101132.66;;;16.93;44.45
71559;BME280;59382;43.852;25.952;2023-04-27T12:24:16;101149.31;;;17.08;44.32
71559;BME280;59382;43.852;25.952;2023-04-27T12:26:42;101146.94;;;17.12;44.28
71559;BME280;59382;43.852;25.952;2023-04-27T12:29:07;101135.78;;;17.13;44.05
71559;BME280;59382;43.852;25.952;2023-04-27T12:31:33;101139.78;;;17.22;44.17
71559;BME280;59382;43.852;25.952;2023-04-27T12:34:00;101131.00;;;17.20;44.00
71559;BME280;59382;43.852;25.952;2023-04-27T12:36:25;101138.13;;;17.21;43.57
71559;BME280;59382;43.852;25.952;2023-04-27T12:38:56;101121.56;;;17.11;43.76
71559;BME280;59382;43.852;25.952;2023-04-27T12:41:21;101122.94;;;17.25;43.96
71559;BME280;59382;43.852;25.952;2023-04-27T12:43:47;101120.75;;;17.27;44.22
71559;BME280;59382;43.852;25.952;2023-04-27T12:46:13;101091.09;;;17.14;44.01
71559;BME280;59382;43.852;25.952;2023-04-27T12:48:38;101130.22;;;17.36;44.15
71559;BME280;59382;43.852;25.952;2023-04-27T12:51:05;101123.78;;;17.42;44.00
71559;BME280;59382;43.852;25.952;2023-04-27T12:53:31;101101.63;;;17.39;44.08